Milwaukee, Wisconsin
Traffic Map
Current Weather Conditions
Milwaukee, Wisconsin
Scattered Clouds
Scattered Clouds

Feels Like: 1°
Wind Chill: Ceiling: Unl
Heat Index: Visibility: 10mi
Dew Point: -1° Wind: 5mph
Humidity: 76% Direction: 340° (NNW)
Pressure: 30.3in Gusts: 0mph
Raw Report DataKMKE 180952Z 34004KT 10SM SCT045 03/M01 A3030 RMK AO2 SLP264 T00331006
Traffic Incident Summary
Active as of:
Severity:
Category:
InformationThere was an issue retrieving the traffic information for this location. Please try a different location or try again shortly.
Advertisements
At Last! Intellicast now available for iPhone and Android